GLO1454 SBGR-SBBR
Flight info
| Callsign | GLO1454 |
|---|---|
| Flight time | N/A |
| Altitude | 37000 |
| Route | ISMOB UZ26 AZOIC |
| Aircraft | B38M/M-SDE1FGHILORVWXY/HB1 |
Departure
| Time | N/A |
|---|---|
| Airport | São Paulo/Guarulhos–Governor André Franco Montoro International Airport (SBGR) |
Arrival
| Time | 2026-05-01 07:51 |
|---|---|
| Airport | Presidente Juscelino Kubitschek International Airport (SBBR) |
| Time | Latitude | Longitude | Altitude | Speed | Heading |
|---|---|---|---|---|---|
| 2026-05-01 07:23 | -18.02033 | -47.78462 | 36131 ft | 425 kts | 346° |
| 2026-05-01 07:24 | -17.93373 | -47.80553 | 36139 ft | 425 kts | 346° |
| 2026-05-01 07:24 | -17.87511 | -47.81970 | 36145 ft | 426 kts | 346° |
| 2026-05-01 07:25 | -17.81642 | -47.83389 | 36149 ft | 426 kts | 346° |
| 2026-05-01 07:25 | -17.75916 | -47.84773 | 36151 ft | 426 kts | 346° |
| 2026-05-01 07:26 | -17.69986 | -47.86205 | 36151 ft | 427 kts | 346° |
| 2026-05-01 07:26 | -17.67025 | -47.86919 | 36046 ft | 425 kts | 346° |
| 2026-05-01 07:26 | -17.64149 | -47.87613 | 35496 ft | 424 kts | 346° |
| 2026-05-01 07:26 | -17.61247 | -47.88312 | 34976 ft | 422 kts | 347° |
| 2026-05-01 07:27 | -17.58408 | -47.88997 | 34494 ft | 419 kts | 347° |
| 2026-05-01 07:27 | -17.55526 | -47.89691 | 33972 ft | 417 kts | 347° |
| 2026-05-01 07:27 | -17.52705 | -47.90372 | 33459 ft | 414 kts | 347° |
| 2026-05-01 07:27 | -17.49902 | -47.91047 | 32945 ft | 412 kts | 347° |
| 2026-05-01 07:28 | -17.47075 | -47.91728 | 32458 ft | 410 kts | 347° |
| 2026-05-01 07:28 | -17.44289 | -47.92399 | 31958 ft | 409 kts | 347° |
| 2026-05-01 07:28 | -17.41493 | -47.93072 | 31441 ft | 408 kts | 347° |
| 2026-05-01 07:28 | -17.38830 | -47.93713 | 30949 ft | 408 kts | 347° |
| 2026-05-01 07:29 | -17.36080 | -47.94374 | 30433 ft | 407 kts | 348° |
| 2026-05-01 07:29 | -17.33308 | -47.95041 | 29918 ft | 406 kts | 348° |
| 2026-05-01 07:29 | -17.30567 | -47.95700 | 29401 ft | 405 kts | 348° |
| 2026-05-01 07:29 | -17.27773 | -47.96372 | 28879 ft | 404 kts | 348° |
| 2026-05-01 07:30 | -17.25005 | -47.97036 | 28361 ft | 403 kts | 348° |
| 2026-05-01 07:30 | -17.22246 | -47.97699 | 27846 ft | 403 kts | 348° |
| 2026-05-01 07:30 | -17.19476 | -47.98363 | 27321 ft | 402 kts | 348° |
| 2026-05-01 07:30 | -17.16776 | -47.99012 | 26811 ft | 401 kts | 348° |
| 2026-05-01 07:31 | -17.13989 | -47.99681 | 26282 ft | 400 kts | 348° |
| 2026-05-01 07:31 | -17.05803 | -48.01642 | 24730 ft | 397 kts | 348° |
| 2026-05-01 07:32 | -17.00430 | -48.02931 | 23711 ft | 394 kts | 349° |
| 2026-05-01 07:32 | -16.97761 | -48.03570 | 23215 ft | 393 kts | 349° |
| 2026-05-01 07:33 | -16.92372 | -48.04861 | 22197 ft | 390 kts | 349° |
| 2026-05-01 07:33 | -16.89710 | -48.05499 | 21694 ft | 389 kts | 349° |
| 2026-05-01 07:33 | -16.84360 | -48.06779 | 20664 ft | 381 kts | 349° |
| 2026-05-01 07:34 | -16.81810 | -48.07390 | 20193 ft | 372 kts | 349° |
| 2026-05-01 07:34 | -16.76854 | -48.08575 | 19261 ft | 356 kts | 349° |
| 2026-05-01 07:34 | -16.74441 | -48.09135 | 18810 ft | 355 kts | 350° |
| 2026-05-01 07:35 | -16.71991 | -48.09683 | 18335 ft | 355 kts | 351° |
| 2026-05-01 07:35 | -16.69575 | -48.10212 | 17878 ft | 354 kts | 351° |
| 2026-05-01 07:35 | -16.67162 | -48.10748 | 17424 ft | 354 kts | 350° |
| 2026-05-01 07:35 | -16.64775 | -48.11288 | 16974 ft | 353 kts | 350° |
| 2026-05-01 07:36 | -16.62353 | -48.11842 | 16516 ft | 353 kts | 350° |
| 2026-05-01 07:36 | -16.59952 | -48.12393 | 16063 ft | 352 kts | 350° |
| 2026-05-01 07:36 | -16.57578 | -48.12934 | 15612 ft | 352 kts | 351° |
| 2026-05-01 07:36 | -16.55176 | -48.13476 | 15139 ft | 348 kts | 351° |
| 2026-05-01 07:37 | -16.50534 | -48.14519 | 14280 ft | 337 kts | 351° |
| 2026-05-01 07:37 | -16.48223 | -48.15037 | 13829 ft | 337 kts | 351° |
| 2026-05-01 07:37 | -16.45922 | -48.15559 | 13382 ft | 336 kts | 351° |
| 2026-05-01 07:38 | -16.43619 | -48.16087 | 12943 ft | 336 kts | 351° |
| 2026-05-01 07:38 | -16.41339 | -48.16610 | 12509 ft | 335 kts | 351° |
| 2026-05-01 07:38 | -16.36789 | -48.17635 | 11631 ft | 333 kts | 351° |
| 2026-05-01 07:39 | -16.34535 | -48.18140 | 11196 ft | 332 kts | 351° |
| 2026-05-01 07:39 | -16.32271 | -48.18647 | 10765 ft | 331 kts | 351° |
| 2026-05-01 07:39 | -16.27796 | -48.19657 | 10148 ft | 319 kts | 351° |
| 2026-05-01 07:40 | -16.25656 | -48.20110 | 10136 ft | 302 kts | 357° |
| 2026-05-01 07:40 | -16.23616 | -48.20163 | 10142 ft | 283 kts | 8° |
| 2026-05-01 07:40 | -16.21672 | -48.19989 | 10144 ft | 274 kts | 9° |
| 2026-05-01 07:40 | -16.19754 | -48.19826 | 10144 ft | 275 kts | 8° |
| 2026-05-01 07:41 | -16.17849 | -48.19690 | 10144 ft | 277 kts | 8° |
| 2026-05-01 07:41 | -16.15887 | -48.19553 | 10144 ft | 277 kts | 8° |
| 2026-05-01 07:41 | -16.12006 | -48.19266 | 10145 ft | 277 kts | 8° |
| 2026-05-01 07:42 | -16.10092 | -48.19121 | 10143 ft | 277 kts | 8° |
| 2026-05-01 07:42 | -16.08166 | -48.18976 | 10143 ft | 278 kts | 8° |
| 2026-05-01 07:42 | -16.06230 | -48.18832 | 10081 ft | 275 kts | 8° |
| 2026-05-01 07:42 | -16.04326 | -48.18692 | 9890 ft | 270 kts | 8° |
| 2026-05-01 07:43 | -16.02414 | -48.18547 | 9475 ft | 274 kts | 9° |
| 2026-05-01 07:43 | -16.00486 | -48.18398 | 9105 ft | 275 kts | 8° |
| 2026-05-01 07:43 | -15.96760 | -48.17794 | 8434 ft | 260 kts | 17° |
| 2026-05-01 07:44 | -15.93446 | -48.17055 | 8245 ft | 221 kts | 17° |
| 2026-05-01 07:44 | -15.90626 | -48.16427 | 7934 ft | 195 kts | 19° |
| 2026-05-01 07:45 | -15.89321 | -48.16086 | 7662 ft | 188 kts | 27° |
| 2026-05-01 07:45 | -15.88323 | -48.15314 | 7447 ft | 173 kts | 61° |
| 2026-05-01 07:45 | -15.87983 | -48.14212 | 7346 ft | 162 kts | 79° |
| 2026-05-01 07:45 | -15.87795 | -48.13042 | 7237 ft | 166 kts | 80° |
| 2026-05-01 07:46 | -15.87635 | -48.11843 | 7017 ft | 164 kts | 81° |
| 2026-05-01 07:46 | -15.87513 | -48.10729 | 6812 ft | 151 kts | 84° |
| 2026-05-01 07:46 | -15.87358 | -48.08558 | 6413 ft | 150 kts | 84° |
| 2026-05-01 07:47 | -15.87289 | -48.07466 | 6204 ft | 150 kts | 83° |
| 2026-05-01 07:47 | -15.87219 | -48.06393 | 6010 ft | 150 kts | 83° |
| 2026-05-01 07:47 | -15.87148 | -48.05293 | 5807 ft | 151 kts | 83° |
| 2026-05-01 07:47 | -15.87079 | -48.04210 | 5625 ft | 150 kts | 84° |
| 2026-05-01 07:48 | -15.86949 | -48.02124 | 5224 ft | 146 kts | 84° |
| 2026-05-01 07:48 | -15.86876 | -48.01047 | 5016 ft | 147 kts | 87° |
| 2026-05-01 07:48 | -15.86810 | -47.99982 | 4826 ft | 148 kts | 86° |
| 2026-05-01 07:49 | -15.86739 | -47.98905 | 4629 ft | 150 kts | 87° |
| 2026-05-01 07:49 | -15.86603 | -47.96726 | 4233 ft | 153 kts | 85° |
| 2026-05-01 07:49 | -15.86528 | -47.95618 | 4031 ft | 154 kts | 85° |
| 2026-05-01 07:50 | -15.86467 | -47.94496 | 3858 ft | 155 kts | 87° |
| 2026-05-01 07:50 | -15.86330 | -47.92363 | 3476 ft | 139 kts | 87° |
| 2026-05-01 07:50 | -15.86274 | -47.91516 | 3472 ft | 88 kts | 85° |
| 2026-05-01 07:51 | -15.86240 | -47.91054 | 3480 ft | 50 kts | 84° |
| 2026-05-01 07:51 | -15.86263 | -47.90847 | 3487 ft | 19 kts | 122° |
| 2026-05-01 07:51 | -15.86339 | -47.90751 | 3489 ft | 15 kts | 130° |
| 2026-05-01 07:52 | -15.86420 | -47.90819 | 3489 ft | 12 kts | 266° |
| 2026-05-01 07:52 | -15.86427 | -47.90920 | 3487 ft | 14 kts | 266° |
| 2026-05-01 07:52 | -15.86434 | -47.91027 | 3485 ft | 15 kts | 266° |
| 2026-05-01 07:53 | -15.86449 | -47.91260 | 3481 ft | 16 kts | 265° |
| 2026-05-01 07:53 | -15.86456 | -47.91380 | 3479 ft | 16 kts | 266° |
| 2026-05-01 07:53 | -15.86463 | -47.91494 | 3477 ft | 16 kts | 266° |
| 2026-05-01 07:53 | -15.86470 | -47.91595 | 3477 ft | 13 kts | 266° |
| 2026-05-01 07:54 | -15.86482 | -47.91773 | 3476 ft | 12 kts | 260° |
| 2026-05-01 07:55 | -15.86609 | -47.91867 | 3479 ft | 8 kts | 264° |
| 2026-05-01 07:55 | -15.86629 | -47.91969 | 3480 ft | 5 kts | 198° |
| 2026-05-01 07:56 | -15.86694 | -47.91978 | 3482 ft | 3 kts | 185° |
| 2026-05-01 07:56 | -15.86709 | -47.91980 | 3483 ft | 0 kts | 185° |